createdAt,value
2022-08-17T00:00:18.266Z,36.52
2022-08-17T00:05:39.510Z,38.36
2022-08-17T00:10:43.990Z,39.80
2022-08-17T00:15:46.376Z,37.20
2022-08-17T00:20:48.525Z,35.98
2022-08-17T00:25:51.198Z,34.25
2022-08-17T00:30:54.487Z,34.60
2022-08-17T00:35:58.161Z,40.46
2022-08-17T00:41:04.014Z,36.89
2022-08-17T00:46:19.291Z,36.00
2022-08-17T00:51:40.144Z,35.14
2022-08-17T00:56:47.828Z,34.40
2022-08-17T01:01:51.001Z,34.57
2022-08-17T01:06:53.861Z,33.97
2022-08-17T01:11:56.154Z,35.12
2022-08-17T01:17:00.401Z,34.99
2022-08-17T01:22:14.051Z,35.43
2022-08-17T01:27:18.518Z,34.82
2022-08-17T01:32:22.856Z,35.41
2022-08-17T01:37:34.778Z,35.49
2022-08-17T01:42:44.333Z,36.11
2022-08-17T01:47:46.524Z,35.12
2022-08-17T01:52:54.359Z,35.59
2022-08-17T01:57:56.541Z,35.30
2022-08-17T02:02:58.727Z,35.41
2022-08-17T02:08:01.931Z,35.26
2022-08-17T02:13:05.153Z,35.14
2022-08-17T02:18:09.335Z,35.49
2022-08-17T02:23:13.004Z,37.31
2022-08-17T02:28:15.905Z,36.68
2022-08-17T02:33:18.357Z,36.30
2022-08-17T02:38:22.482Z,35.56
2022-08-17T02:43:27.534Z,36.19
2022-08-17T02:48:31.694Z,35.53
2022-08-17T02:53:36.509Z,34.63
2022-08-17T02:58:38.690Z,35.63
2022-08-17T03:03:41.469Z,35.63
2022-08-17T03:08:43.651Z,35.48
2022-08-17T03:13:46.104Z,36.89
2022-08-17T03:18:48.673Z,36.05
2022-08-17T03:23:54.522Z,36.23
2022-08-17T03:28:57.185Z,35.24
2022-08-17T03:33:59.401Z,34.56
2022-08-17T03:39:02.090Z,35.61
2022-08-17T03:44:04.645Z,35.57
2022-08-17T03:49:26.973Z,36.09
2022-08-17T03:54:47.922Z,37.48
2022-08-17T03:59:51.110Z,37.14
2022-08-17T04:04:54.007Z,38.38
2022-08-17T04:09:58.184Z,37.12
2022-08-17T04:15:00.607Z,37.11
2022-08-17T04:20:02.934Z,37.32
2022-08-17T04:25:07.123Z,37.89
2022-08-17T04:30:09.946Z,39.09
2022-08-17T04:35:12.126Z,37.51
2022-08-17T04:40:32.981Z,37.55
2022-08-17T04:45:40.706Z,39.08
2022-08-17T04:50:59.659Z,38.75
2022-08-17T04:56:02.027Z,39.30
2022-08-17T05:01:05.999Z,39.12
2022-08-17T05:06:09.021Z,39.37
2022-08-17T05:11:11.289Z,40.36
2022-08-17T05:16:13.595Z,40.00
2022-08-17T05:21:16.761Z,40.74
2022-08-17T05:26:26.761Z,41.59
2022-08-17T05:31:30.552Z,40.77
2022-08-17T05:36:43.461Z,39.87
2022-08-17T05:41:48.178Z,41.54
2022-08-17T05:46:53.345Z,48.69
2022-08-17T05:52:07.070Z,49.20
2022-08-17T05:57:18.061Z,48.73
2022-08-17T06:02:48.205Z,46.05
2022-08-17T06:07:59.661Z,52.32
2022-08-17T06:13:11.082Z,55.25
2022-08-17T06:18:18.912Z,53.83
2022-08-17T06:23:43.430Z,60.85
2022-08-17T06:28:59.225Z,52.60
2022-08-17T06:34:06.388Z,50.42
2022-08-17T06:39:24.429Z,47.85
2022-08-17T06:44:43.304Z,44.07
2022-08-17T06:50:03.399Z,44.63
2022-08-17T06:55:18.145Z,55.70
2022-08-17T07:00:26.714Z,54.67
2022-08-17T07:05:38.837Z,48.84
2022-08-17T07:10:51.262Z,45.16
2022-08-17T07:15:59.699Z,43.69
2022-08-17T07:21:29.480Z,42.35
2022-08-17T07:26:34.640Z,40.35
2022-08-17T07:31:39.081Z,40.93
2022-08-17T07:36:42.993Z,45.67
2022-08-17T07:41:57.061Z,55.19
2022-08-17T07:47:19.551Z,48.64
2022-08-17T07:52:51.185Z,48.74
2022-08-17T07:57:59.062Z,47.95
2022-08-17T08:03:11.620Z,45.12
2022-08-17T08:08:43.615Z,47.82
2022-08-17T08:13:46.144Z,56.96
2022-08-17T08:18:55.382Z,57.28
2022-08-17T08:24:20.233Z,52.30
2022-08-17T08:29:49.251Z,46.80
2022-08-17T08:35:13.950Z,56.04
2022-08-17T08:40:34.337Z,52.50
2022-08-17T08:46:05.960Z,55.24
2022-08-17T08:51:19.322Z,54.60
2022-08-17T08:56:21.994Z,48.46
2022-08-17T09:01:51.247Z,43.84
2022-08-17T09:07:17.789Z,45.22
2022-08-17T09:12:50.011Z,45.28
2022-08-17T09:18:59.820Z,47.02
2022-08-17T09:23:35.193Z,49.39
2022-08-17T09:28:40.425Z,43.47
2022-08-17T09:33:48.435Z,47.21
2022-08-17T09:39:04.185Z,40.94
2022-08-17T09:44:36.661Z,38.77
2022-08-17T09:49:47.343Z,40.62
2022-08-17T09:54:51.814Z,37.60
2022-08-17T10:00:19.047Z,47.35
2022-08-17T10:05:30.324Z,44.58
2022-08-17T10:10:56.352Z,37.61
2022-08-17T10:16:07.901Z,35.47
2022-08-17T10:21:35.304Z,40.32
2022-08-17T10:26:55.484Z,42.57
2022-08-17T10:32:07.190Z,41.66
2022-08-17T10:37:28.438Z,44.20
2022-08-17T10:42:42.776Z,44.33
2022-08-17T10:48:04.760Z,43.50
2022-08-17T10:53:08.077Z,43.37
2022-08-17T10:58:24.528Z,43.50
2022-08-17T11:03:29.790Z,39.79
2022-08-17T11:08:55.129Z,40.55
2022-08-17T11:14:36.789Z,38.32
2022-08-17T11:20:12.593Z,39.84
2022-08-17T11:25:32.396Z,43.75
2022-08-17T11:30:40.668Z,41.24
2022-08-17T11:35:54.510Z,40.29
2022-08-17T11:41:35.142Z,40.21
2022-08-17T11:47:09.539Z,42.15
2022-08-17T11:52:36.729Z,38.61
2022-08-17T11:57:40.449Z,38.34
2022-08-17T12:02:48.159Z,40.35
2022-08-17T12:08:12.829Z,38.03
2022-08-17T12:13:16.810Z,39.87
2022-08-17T12:18:32.096Z,40.83
2022-08-17T12:23:47.494Z,42.49
2022-08-17T12:28:57.538Z,40.28
2022-08-17T12:34:04.605Z,39.22
2022-08-17T12:39:13.848Z,37.64
2022-08-17T12:44:46.122Z,39.27
2022-08-17T12:49:54.888Z,36.71
2022-08-17T12:55:18.709Z,38.64
2022-08-17T13:00:31.723Z,39.69
2022-08-17T13:05:38.061Z,40.01
2022-08-17T13:10:40.616Z,39.59
2022-08-17T13:15:53.582Z,35.50
2022-08-17T13:20:59.289Z,40.15
2022-08-17T13:26:07.137Z,36.51
2022-08-17T13:31:30.491Z,36.09
2022-08-17T13:36:33.757Z,36.40
2022-08-17T13:41:38.015Z,34.08
2022-08-17T13:46:40.215Z,35.98
2022-08-17T13:51:44.912Z,36.25
2022-08-17T13:56:55.851Z,38.60
2022-08-17T14:01:58.769Z,38.28
2022-08-17T14:07:11.615Z,39.42
2022-08-17T14:12:17.420Z,37.67
2022-08-17T14:17:19.969Z,40.32
2022-08-17T14:22:27.967Z,38.34
2022-08-17T14:27:51.895Z,39.34
2022-08-17T14:32:56.617Z,39.37
2022-08-17T14:37:58.822Z,38.96
2022-08-17T14:43:01.475Z,38.43
2022-08-17T14:48:08.641Z,37.46
2022-08-17T14:53:15.129Z,37.07
2022-08-17T14:58:18.113Z,34.89
2022-08-17T15:03:20.943Z,34.45
2022-08-17T15:08:23.150Z,35.19
2022-08-17T15:13:26.909Z,41.34
2022-08-17T15:18:30.367Z,45.45
2022-08-17T15:23:32.982Z,46.02
2022-08-17T15:28:35.524Z,63.76
2022-08-17T15:33:37.745Z,50.81
2022-08-17T15:38:41.038Z,49.64
2022-08-17T15:43:50.028Z,50.71
2022-08-17T15:48:55.688Z,52.74
2022-08-17T15:54:19.067Z,69.60
2022-08-17T15:59:24.790Z,58.88
2022-08-17T16:04:30.802Z,59.62
2022-08-17T16:09:33.862Z,60.48
2022-08-17T16:14:36.485Z,64.17
2022-08-17T16:19:39.706Z,74.52
2022-08-17T16:24:57.247Z,76.48
2022-08-17T16:30:00.640Z,76.53
2022-08-17T16:35:08.200Z,73.58
2022-08-17T16:40:11.714Z,72.85
2022-08-17T16:45:23.520Z,80.96
2022-08-17T16:50:26.804Z,76.29
2022-08-17T16:55:28.894Z,70.04
2022-08-17T17:00:33.432Z,82.89
2022-08-17T17:05:55.135Z,79.26
2022-08-17T17:11:08.952Z,71.63
2022-08-17T17:16:28.540Z,71.36
2022-08-17T17:21:42.507Z,79.35
2022-08-17T17:26:50.827Z,73.43
2022-08-17T17:32:20.989Z,66.89
2022-08-17T17:37:32.692Z,69.53
2022-08-17T17:42:39.225Z,66.26
2022-08-17T17:47:41.958Z,63.49
2022-08-17T17:52:54.010Z,67.32
2022-08-17T17:58:48.525Z,63.35
2022-08-17T18:04:14.279Z,60.06
2022-08-17T18:10:05.769Z,56.87
2022-08-17T18:15:34.895Z,56.21
2022-08-17T18:20:53.453Z,53.29
2022-08-17T18:25:58.860Z,56.74
2022-08-17T18:31:13.260Z,53.20
2022-08-17T18:36:34.342Z,53.59
2022-08-17T18:41:46.155Z,52.68
2022-08-17T18:46:48.336Z,51.78
2022-08-17T18:52:17.408Z,48.79
2022-08-17T18:57:34.713Z,48.09
2022-08-17T19:02:56.431Z,48.91
2022-08-17T19:08:29.650Z,52.06
2022-08-17T19:13:37.145Z,48.40
2022-08-17T19:18:52.042Z,48.13
2022-08-17T19:24:05.134Z,47.69
2022-08-17T19:29:22.565Z,47.80
2022-08-17T19:34:34.016Z,46.61
2022-08-17T19:39:42.421Z,45.85
2022-08-17T19:44:52.828Z,45.32
2022-08-17T19:50:16.546Z,44.82
2022-08-17T19:55:31.850Z,45.12
2022-08-17T20:00:41.970Z,44.75
2022-08-17T20:06:11.432Z,44.46
2022-08-17T20:11:21.239Z,45.66
2022-08-17T20:16:24.761Z,44.03
2022-08-17T20:21:34.574Z,46.53
2022-08-17T20:26:58.604Z,49.16
2022-08-17T20:32:01.126Z,47.88
2022-08-17T20:37:10.298Z,46.78
2022-08-17T20:42:21.302Z,46.23
2022-08-17T20:47:32.801Z,47.26
2022-08-17T20:52:43.544Z,49.12
2022-08-17T20:57:49.076Z,51.32
2022-08-17T21:03:12.150Z,57.77
2022-08-17T21:08:17.066Z,53.30
2022-08-17T21:13:22.102Z,52.58
2022-08-17T21:18:47.653Z,49.87
2022-08-17T21:23:55.680Z,48.02
2022-08-17T21:29:31.020Z,47.12
2022-08-17T21:34:45.353Z,46.33
2022-08-17T21:40:00.606Z,46.38
2022-08-17T21:45:26.136Z,50.32
2022-08-17T21:50:28.377Z,50.05
2022-08-17T21:55:36.169Z,48.94
2022-08-17T22:00:38.541Z,48.07
2022-08-17T22:05:40.743Z,49.00
2022-08-17T22:10:45.084Z,47.65
2022-08-17T22:16:15.317Z,49.10
2022-08-17T22:21:30.439Z,47.91
2022-08-17T22:26:59.519Z,46.81
2022-08-17T22:32:01.701Z,50.25
2022-08-17T22:37:29.116Z,53.31
2022-08-17T22:42:48.643Z,58.87
2022-08-17T22:47:55.709Z,67.48
2022-08-17T22:53:20.437Z,73.99
2022-08-17T22:58:43.513Z,78.96
2022-08-17T23:04:12.165Z,72.43
2022-08-17T23:09:14.343Z,65.28
2022-08-17T23:14:19.306Z,63.31
2022-08-17T23:19:21.819Z,59.17
2022-08-17T23:24:30.027Z,63.04
2022-08-17T23:29:32.229Z,66.01
2022-08-17T23:34:34.771Z,68.43
2022-08-17T23:39:37.753Z,67.42
2022-08-17T23:44:41.782Z,71.92
2022-08-17T23:49:44.055Z,72.94
2022-08-17T23:54:48.378Z,67.13
2022-08-17T23:59:50.537Z,65.34
